Back to Top

Language: 

My Weather Underground Personal Weather Station Historical Data with Graphs...

Delerius Weather Station Historical Data
Daily Summary for December 25, 2017 Units:  English    Metric   Both
« Previous Day
Next Day »
Daily Weekly Monthly Yearly Custom
  High: Low: Average:
Temperature: 52.5 °F 40.5 °F 49.4 °F
Dew Point: 47.4 °F 37.8 °F 44.7 °F
Humidity: 92 % 77 % 84 %
Wind Speed: 21.0 mph 2.0 mph 12.3 mph
Wind Gust: 39.0 mph - -
Wind:- - SW
Pressure: 29.82 in 29.23 in -
Precipitation: 0.07 in    
Historical Graphs
 
 
Tabular Data for December 25, 2017
Time Temperature Dew Point Pressure Wind Wind Speed Wind Gust Humidity Rainfall Rate (Hourly) solar Conditions
00:00 51.4 °F 45.5 °F 29.82 in SW 16.0 mph 26.0 mph 80 % 0.00 in 0 W/m2
00:03 51.4 °F 45.5 °F 29.82 in SW 15.0 mph 21.0 mph 80 % 0.00 in 0 W/m2
00:07 51.4 °F 45.5 °F 29.82 in WSW 19.0 mph 28.0 mph 80 % 0.00 in 0 W/m2
00:12 51.4 °F 45.5 °F 29.82 in WSW 15.0 mph 24.0 mph 80 % 0.00 in 0 W/m2
00:13 51.4 °F 45.5 °F 29.82 in WSW 15.0 mph 24.0 mph 80 % 0.00 in 0 W/m2
00:18 51.6 °F 46.0 °F 29.82 in SW 18.0 mph 25.0 mph 81 % 0.00 in 0 W/m2
00:23 51.6 °F 46.0 °F 29.82 in WSW 13.0 mph 21.0 mph 81 % 0.00 in 0 W/m2
00:24 51.6 °F 46.0 °F 29.82 in WSW 15.0 mph 21.0 mph 81 % 0.00 in 0 W/m2
00:26 51.6 °F 46.0 °F 29.82 in WSW 12.0 mph 20.0 mph 81 % 0.00 in 0 W/m2
00:31 51.6 °F 46.0 °F 29.81 in WSW 13.0 mph 24.0 mph 81 % 0.00 in 0 W/m2
00:35 51.6 °F 46.0 °F 29.82 in SW 16.0 mph 24.0 mph 81 % 0.00 in 0 W/m2
00:36 51.6 °F 46.0 °F 29.82 in SW 16.0 mph 25.0 mph 81 % 0.00 in 0 W/m2
00:41 51.8 °F 46.2 °F 29.82 in WSW 13.0 mph 30.0 mph 81 % 0.00 in 0 W/m2
00:46 52.0 °F 46.0 °F 29.81 in WSW 19.0 mph 29.0 mph 80 % 0.00 in 0 W/m2
00:49 52.2 °F 46.2 °F 29.82 in WSW 17.0 mph 28.0 mph 80 % 0.00 in 0 W/m2
00:51 52.2 °F 46.2 °F 29.82 in WSW 19.0 mph 28.0 mph 80 % 0.00 in 0 W/m2
00:56 52.2 °F 45.8 °F 29.81 in WSW 18.0 mph 27.0 mph 79 % 0.00 in 0 W/m2
00:57 52.2 °F 45.8 °F 29.80 in WSW 21.0 mph 33.0 mph 79 % 0.00 in 0 W/m2
01:02 52.3 °F 45.7 °F 29.81 in SW 16.0 mph 27.0 mph 78 % 0.00 in 0 W/m2
01:04 52.3 °F 45.7 °F 29.80 in SW 19.0 mph 26.0 mph 78 % 0.00 in 0 W/m2
01:07 52.3 °F 45.7 °F 29.81 in SW 18.0 mph 25.0 mph 78 % 0.00 in 0 W/m2
01:12 52.3 °F 45.7 °F 29.80 in SW 14.0 mph 20.0 mph 78 % 0.00 in 0 W/m2
01:15 52.2 °F 45.5 °F 29.80 in SW 18.0 mph 27.0 mph 78 % 0.00 in 0 W/m2
01:20 52.2 °F 45.5 °F 29.80 in SW 16.0 mph 25.0 mph 78 % 0.00 in 0 W/m2
01:21 52.2 °F 45.5 °F 29.79 in WSW 15.0 mph 25.0 mph 78 % 0.00 in 0 W/m2
01:26 52.2 °F 45.8 °F 29.79 in SW 15.0 mph 24.0 mph 79 % 0.00 in 0 W/m2
01:27 52.2 °F 45.8 °F 29.79 in SW 14.0 mph 22.0 mph 79 % 0.00 in 0 W/m2
01:31 52.0 °F 45.3 °F 29.79 in SW 15.0 mph 25.0 mph 78 % 0.00 in 0 W/m2
01:36 52.0 °F 45.3 °F 29.79 in SW 15.0 mph 22.0 mph 78 % 0.00 in 0 W/m2
01:37 52.0 °F 45.3 °F 29.79 in SW 15.0 mph 22.0 mph 78 % 0.00 in 0 W/m2
01:42 52.0 °F 45.3 °F 29.78 in SW 15.0 mph 24.0 mph 78 % 0.00 in 0 W/m2
01:43 52.0 °F 45.3 °F 29.78 in SW 16.0 mph 24.0 mph 78 % 0.00 in 0 W/m2
01:47 52.0 °F 45.7 °F 29.78 in SW 14.0 mph 22.0 mph 79 % 0.00 in 0 W/m2
01:52 51.8 °F 45.5 °F 29.78 in SW 16.0 mph 30.0 mph 79 % 0.00 in 0 W/m2
01:53 51.8 °F 45.5 °F 29.78 in SW 16.0 mph 25.0 mph 79 % 0.00 in 0 W/m2
01:55 52.0 °F 45.7 °F 29.78 in SW 16.0 mph 26.0 mph 79 % 0.00 in 0 W/m2
02:00 52.0 °F 45.7 °F 29.77 in SW 21.0 mph 29.0 mph 79 % 0.00 in 0 W/m2
02:01 52.0 °F 45.7 °F 29.78 in SW 21.0 mph 29.0 mph 79 % 0.00 in 0 W/m2
02:07 52.0 °F 45.7 °F 29.77 in SW 15.0 mph 24.0 mph 79 % 0.00 in 0 W/m2
02:09 52.0 °F 45.7 °F 29.78 in SW 14.0 mph 21.0 mph 79 % 0.00 in 0 W/m2
02:11 52.0 °F 45.7 °F 29.78 in WSW 17.0 mph 33.0 mph 79 % 0.00 in 0 W/m2
02:15 52.2 °F 45.8 °F 29.78 in SW 14.0 mph 20.0 mph 79 % 0.00 in 0 W/m2
02:20 52.2 °F 45.8 °F 29.77 in SW 14.0 mph 23.0 mph 79 % 0.00 in 0 W/m2
02:21 52.2 °F 45.8 °F 29.77 in SW 18.0 mph 26.0 mph 79 % 0.00 in 0 W/m2
02:26 52.0 °F 45.3 °F 29.77 in SW 14.0 mph 22.0 mph 78 % 0.00 in 0 W/m2
02:29 52.0 °F 45.3 °F 29.76 in SW 17.0 mph 27.0 mph 78 % 0.00 in 0 W/m2
02:32 52.0 °F 45.3 °F 29.77 in SW 18.0 mph 32.0 mph 78 % 0.00 in 0 W/m2
02:37 52.0 °F 45.3 °F 29.77 in SW 17.0 mph 28.0 mph 78 % 0.00 in 0 W/m2
02:42 52.0 °F 45.7 °F 29.77 in SW 13.0 mph 22.0 mph 79 % 0.00 in 0 W/m2
02:47 52.0 °F 45.7 °F 29.77 in SSW 15.0 mph 29.0 mph 79 % 0.00 in 0 W/m2
02:51 52.0 °F 45.7 °F 29.76 in SW 17.0 mph 24.0 mph 79 % 0.00 in 0 W/m2
02:52 52.2 °F 45.8 °F 29.76 in SW 17.0 mph 26.0 mph 79 % 0.00 in 0 W/m2
02:57 52.2 °F 45.8 °F 29.76 in SW 16.0 mph 23.0 mph 79 % 0.00 in 0 W/m2
02:58 52.2 °F 45.8 °F 29.76 in SW 13.0 mph 22.0 mph 79 % 0.00 in 0 W/m2
02:59 52.2 °F 45.8 °F 29.76 in SW 12.0 mph 22.0 mph 79 % 0.00 in 0 W/m2
03:04 52.0 °F 45.7 °F 29.76 in SW 13.0 mph 22.0 mph 79 % 0.00 in 0 W/m2
03:07 52.0 °F 45.7 °F 29.76 in SW 14.0 mph 20.0 mph 79 % 0.00 in 0 W/m2
03:10 52.0 °F 45.7 °F 29.76 in SW 15.0 mph 23.0 mph 79 % 0.00 in 0 W/m2
03:13 52.0 °F 45.7 °F 29.76 in SW 14.0 mph 22.0 mph 79 % 0.00 in 0 W/m2
03:18 52.2 °F 45.5 °F 29.75 in SW 13.0 mph 21.0 mph 78 % 0.00 in 0 W/m2
03:19 52.2 °F 45.5 °F 29.75 in SW 13.0 mph 21.0 mph 78 % 0.00 in 0 W/m2
03:22 52.2 °F 45.5 °F 29.75 in SW 12.0 mph 19.0 mph 78 % 0.00 in 0 W/m2
03:27 52.2 °F 45.5 °F 29.75 in SW 13.0 mph 21.0 mph 78 % 0.00 in 0 W/m2
03:28 52.2 °F 45.5 °F 29.75 in WSW 12.0 mph 20.0 mph 78 % 0.00 in 0 W/m2
03:33 52.2 °F 45.5 °F 29.75 in SW 9.0 mph 15.0 mph 78 % 0.00 in 0 W/m2
03:34 52.2 °F 45.5 °F 29.75 in SW 11.0 mph 15.0 mph 78 % 0.00 in 0 W/m2
03:35 52.2 °F 45.5 °F 29.75 in SW 11.0 mph 15.0 mph 78 % 0.00 in 0 W/m2
03:40 52.3 °F 45.7 °F 29.75 in SW 15.0 mph 25.0 mph 78 % 0.00 in 0 W/m2
03:41 52.2 °F 45.5 °F 29.75 in SW 13.0 mph 22.0 mph 78 % 0.00 in 0 W/m2
03:46 52.3 °F 45.7 °F 29.74 in WSW 17.0 mph 24.0 mph 78 % 0.00 in 0 W/m2
03:48 52.3 °F 45.7 °F 29.74 in SW 14.0 mph 24.0 mph 78 % 0.00 in 0 W/m2
03:53 52.5 °F 45.5 °F 29.74 in SW 16.0 mph 24.0 mph 77 % 0.00 in 0 W/m2
03:54 52.5 °F 45.5 °F 29.74 in WSW 17.0 mph 27.0 mph 77 % 0.00 in 0 W/m2
03:59 52.5 °F 45.5 °F 29.74 in SW 17.0 mph 29.0 mph 77 % 0.00 in 0 W/m2
04:03 52.5 °F 45.5 °F 29.74 in SW 17.0 mph 31.0 mph 77 % 0.00 in 0 W/m2
04:08 52.5 °F 45.5 °F 29.73 in SW 20.0 mph 29.0 mph 77 % 0.00 in 0 W/m2
04:13 52.5 °F 45.5 °F 29.73 in SW 19.0 mph 30.0 mph 77 % 0.00 in 0 W/m2
04:15 52.5 °F 45.5 °F 29.73 in SW 17.0 mph 30.0 mph 77 % 0.00 in 0 W/m2
04:18 52.5 °F 45.5 °F 29.73 in SW 19.0 mph 30.0 mph 77 % 0.00 in 0 W/m2
04:23 52.5 °F 45.5 °F 29.72 in SW 15.0 mph 25.0 mph 77 % 0.00 in 0 W/m2
04:24 52.3 °F 45.3 °F 29.73 in SW 16.0 mph 25.0 mph 77 % 0.00 in 0 W/m2
04:29 52.3 °F 45.3 °F 29.73 in SW 18.0 mph 27.0 mph 77 % 0.00 in 0 W/m2
04:32 52.3 °F 45.7 °F 29.73 in WSW 16.0 mph 25.0 mph 78 % 0.00 in 0 W/m2
04:33 52.3 °F 45.7 °F 29.72 in WSW 16.0 mph 25.0 mph 78 % 0.00 in 0 W/m2
04:38 52.3 °F 45.7 °F 29.72 in WSW 15.0 mph 22.0 mph 78 % 0.00 in 0 W/m2
04:39 52.3 °F 45.7 °F 29.72 in SW 15.0 mph 22.0 mph 78 % 0.00 in 0 W/m2
04:45 52.3 °F 45.7 °F 29.72 in SW 12.0 mph 19.0 mph 78 % 0.00 in 0 W/m2
04:47 52.2 °F 45.5 °F 29.72 in SW 11.0 mph 23.0 mph 78 % 0.00 in 0 W/m2
04:50 52.2 °F 45.8 °F 29.72 in SW 15.0 mph 24.0 mph 79 % 0.00 in 0 W/m2
04:53 52.2 °F 45.5 °F 29.71 in SW 17.0 mph 26.0 mph 78 % 0.00 in 0 W/m2
04:58 52.2 °F 45.5 °F 29.71 in SW 17.0 mph 25.0 mph 78 % 0.00 in 0 W/m2
05:03 52.2 °F 45.8 °F 29.71 in SW 14.0 mph 21.0 mph 79 % 0.00 in 0 W/m2
05:09 52.2 °F 45.8 °F 29.70 in SW 16.0 mph 24.0 mph 79 % 0.00 in 0 W/m2
05:14 52.0 °F 45.7 °F 29.70 in SW 11.0 mph 19.0 mph 79 % 0.00 in 0 W/m2
05:15 52.0 °F 45.7 °F 29.70 in SW 13.0 mph 22.0 mph 79 % 0.00 in 0 W/m2
05:20 52.0 °F 45.7 °F 29.70 in SW 13.0 mph 25.0 mph 79 % 0.00 in 0 W/m2
05:21 52.0 °F 46.0 °F 29.70 in WSW 15.0 mph 25.0 mph 80 % 0.00 in 0 W/m2
05:26 52.0 °F 46.0 °F 29.69 in SW 12.0 mph 16.0 mph 80 % 0.00 in 0 W/m2
05:27 52.0 °F 46.0 °F 29.70 in SW 11.0 mph 16.0 mph 80 % 0.00 in 0 W/m2
05:29 52.0 °F 46.0 °F 29.69 in SW 13.0 mph 22.0 mph 80 % 0.00 in 0 W/m2
05:34 52.0 °F 46.3 °F 29.69 in SW 15.0 mph 23.0 mph 81 % 0.00 in 0 W/m2
05:39 51.8 °F 46.5 °F 29.69 in SW 15.0 mph 22.0 mph 82 % 0.00 in 0 W/m2
05:41 51.8 °F 46.8 °F 29.69 in SW 14.0 mph 20.0 mph 83 % 0.00 in 0 W/m2
05:42 51.6 °F 46.6 °F 29.69 in SW 13.0 mph 20.0 mph 83 % 0.00 in 0 W/m2
05:47 51.4 °F 47.1 °F 29.69 in SW 11.0 mph 20.0 mph 85 % 0.00 in 0 W/m2
05:52 50.9 °F 47.2 °F 29.68 in SW 13.0 mph 22.0 mph 87 % 0.00 in 0 W/m2
05:54 50.7 °F 47.0 °F 29.68 in SW 14.0 mph 22.0 mph 87 % 0.00 in 0 W/m2
05:59 50.7 °F 47.0 °F 29.68 in SW 10.0 mph 14.0 mph 87 % 0.00 in 0 W/m2
06:02 50.7 °F 47.0 °F 29.68 in SW 14.0 mph 21.0 mph 87 % 0.00 in 0 W/m2
06:07 50.9 °F 47.2 °F 29.68 in SW 13.0 mph 19.0 mph 87 % 0.00 in 0 W/m2
06:12 50.9 °F 47.2 °F 29.68 in SW 16.0 mph 22.0 mph 87 % 0.00 in 0 W/m2
06:15 50.7 °F 47.3 °F 29.68 in SW 16.0 mph 25.0 mph 88 % 0.00 in 0 W/m2
06:20 50.5 °F 47.1 °F 29.68 in SW 10.0 mph 14.0 mph 88 % 0.00 in 0 W/m2
06:21 50.5 °F 47.4 °F 29.68 in SW 10.0 mph 15.0 mph 89 % 0.00 in 0 W/m2
06:25 50.4 °F 47.2 °F 29.68 in SW 11.0 mph 19.0 mph 89 % 0.00 in 0 W/m2
06:29 50.4 °F 47.2 °F 29.67 in SW 15.0 mph 25.0 mph 89 % 0.00 in 0 W/m2
06:33 50.2 °F 47.1 °F 29.67 in SW 13.0 mph 19.0 mph 89 % 0.00 in 0 W/m2
06:34 50.2 °F 47.1 °F 29.67 in SW 14.0 mph 23.0 mph 89 % 0.00 in 0 W/m2
06:39 50.4 °F 46.9 °F 29.67 in SW 11.0 mph 19.0 mph 88 % 0.00 in 0 W/m2
06:40 50.4 °F 46.9 °F 29.67 in SW 11.0 mph 21.0 mph 88 % 0.00 in 0 W/m2
06:45 50.5 °F 46.8 °F 29.67 in SW 15.0 mph 27.0 mph 87 % 0.00 in 0 W/m2
06:50 50.7 °F 46.4 °F 29.67 in SW 13.0 mph 24.0 mph 85 % 0.00 in 0 W/m2
06:55 51.1 °F 46.1 °F 29.67 in WSW 13.0 mph 21.0 mph 83 % 0.00 in 0 W/m2
06:59 51.1 °F 46.1 °F 29.67 in WSW 11.0 mph 19.0 mph 83 % 0.00 in 0 W/m2
07:04 51.1 °F 45.8 °F 29.67 in WSW 13.0 mph 23.0 mph 82 % 0.00 in 0 W/m2
07:06 51.1 °F 45.8 °F 29.67 in WSW 13.0 mph 23.0 mph 82 % 0.00 in 0 W/m2
07:10 51.1 °F 45.8 °F 29.67 in WSW 11.0 mph 20.0 mph 82 % 0.00 in 0 W/m2
07:15 51.1 °F 45.8 °F 29.67 in WSW 13.0 mph 18.0 mph 82 % 0.00 in 0 W/m2
07:20 51.3 °F 46.0 °F 29.66 in SW 12.0 mph 26.0 mph 82 % 0.00 in 0 W/m2
07:21 51.3 °F 46.0 °F 29.66 in SW 13.0 mph 27.0 mph 82 % 0.00 in 0 W/m2
07:24 51.3 °F 45.6 °F 29.66 in WSW 10.0 mph 18.0 mph 81 % 0.00 in 0 W/m2
07:26 51.3 °F 45.6 °F 29.66 in WSW 12.0 mph 19.0 mph 81 % 0.00 in 0 W/m2
07:29 51.3 °F 45.6 °F 29.66 in SW 12.0 mph 23.0 mph 81 % 0.00 in 0 W/m2
07:34 51.3 °F 45.3 °F 29.66 in SW 17.0 mph 26.0 mph 80 % 0.00 in 0 W/m2
07:35 51.3 °F 45.3 °F 29.66 in SW 15.0 mph 22.0 mph 80 % 0.00 in 0 W/m2
07:36 51.4 °F 45.5 °F 29.66 in SW 16.0 mph 26.0 mph 80 % 0.00 in 0 W/m2
07:41 51.3 °F 45.3 °F 29.65 in WSW 14.0 mph 20.0 mph 80 % 0.00 in 0 W/m2
07:44 51.3 °F 45.6 °F 29.65 in SW 11.0 mph 16.0 mph 81 % 0.00 in 0 W/m2
07:49 51.1 °F 45.5 °F 29.66 in SW 18.0 mph 24.0 mph 81 % 0.00 in 0 W/m2
07:50 51.3 °F 45.6 °F 29.65 in SW 14.0 mph 24.0 mph 81 % 0.00 in 0 W/m2
07:55 51.3 °F 45.6 °F 29.65 in SW 11.0 mph 15.0 mph 81 % 0.00 in 0 W/m2
08:00 51.3 °F 45.6 °F 29.65 in SW 10.0 mph 16.0 mph 81 % 0.00 in 0 W/m2
08:05 51.3 °F 46.0 °F 29.65 in SW 10.0 mph 15.0 mph 82 % 0.00 in 0 W/m2
08:10 51.1 °F 46.1 °F 29.65 in SW 10.0 mph 15.0 mph 83 % 0.00 in 0 W/m2
08:11 51.1 °F 46.1 °F 29.65 in SW 9.0 mph 15.0 mph 83 % 0.00 in 0 W/m2
08:13 51.1 °F 46.4 °F 29.65 in SW 7.0 mph 13.0 mph 84 % 0.00 in 0 W/m2
08:18 50.7 °F 46.4 °F 29.65 in SW 9.0 mph 14.0 mph 85 % 0.00 in 0 W/m2
08:21 50.5 °F 46.5 °F 29.64 in SSW 8.0 mph 12.0 mph 86 % 0.00 in 0 W/m2
08:26 50.2 °F 46.5 °F 29.64 in SSW 8.0 mph 13.0 mph 87 % 0.00 in 5 W/m2
08:28 50.0 °F 46.6 °F 29.64 in SSW 6.0 mph 12.0 mph 88 % 0.00 in 7 W/m2
08:32 49.8 °F 46.4 °F 29.63 in South 6.0 mph 11.0 mph 88 % 0.00 in 9 W/m2
08:37 49.5 °F 46.4 °F 29.63 in SSW 3.0 mph 7.0 mph 89 % 0.00 in 9 W/m2
08:39 49.5 °F 46.4 °F 29.63 in SSW 2.0 mph 8.0 mph 89 % 0.00 in 11 W/m2
08:44 49.3 °F 46.5 °F 29.63 in SSW 9.0 mph 13.0 mph 90 % 0.00 in 11 W/m2
08:45 49.3 °F 46.5 °F 29.63 in SSW 9.0 mph 15.0 mph 90 % 0.00 in 12 W/m2
08:50 49.1 °F 46.0 °F 29.63 in SW 8.0 mph 11.0 mph 89 % 0.00 in 14 W/m2
08:55 49.3 °F 45.9 °F 29.63 in SW 12.0 mph 19.0 mph 88 % 0.00 in 21 W/m2
08:59 49.5 °F 46.1 °F 29.63 in SW 13.0 mph 24.0 mph 88 % 0.00 in 19 W/m2
09:01 49.6 °F 45.9 °F 29.64 in SW 16.0 mph 23.0 mph 87 % 0.00 in 21 W/m2
09:06 50.0 °F 46.0 °F 29.64 in SW 14.0 mph 21.0 mph 86 % 0.00 in 23 W/m2
09:07 50.0 °F 46.0 °F 29.64 in SW 13.0 mph 21.0 mph 86 % 0.00 in 30 W/m2
09:12 50.2 °F 46.2 °F 29.64 in SSW 18.0 mph 32.0 mph 86 % 0.00 in 19 W/m2
09:14 50.2 °F 46.2 °F 29.64 in SSW 20.0 mph 32.0 mph 86 % 0.00 in 23 W/m2
09:18 50.2 °F 46.2 °F 29.63 in SW 12.0 mph 21.0 mph 86 % 0.00 in 35 W/m2
09:23 50.2 °F 45.8 °F 29.64 in SW 16.0 mph 25.0 mph 85 % 0.00 in 25 W/m2
09:24 50.2 °F 45.8 °F 29.64 in SW 17.0 mph 25.0 mph 85 % 0.00 in 23 W/m2
09:29 50.4 °F 46.0 °F 29.64 in SSW 15.0 mph 24.0 mph 85 % 0.00 in 28 W/m2
09:30 50.4 °F 46.0 °F 29.64 in SW 15.0 mph 24.0 mph 85 % 0.00 in 30 W/m2
09:35 50.4 °F 46.0 °F 29.63 in SSW 15.0 mph 23.0 mph 85 % 0.00 in 30 W/m2
09:36 50.4 °F 46.0 °F 29.63 in SSW 15.0 mph 23.0 mph 85 % 0.00 in 25 W/m2
09:41 50.5 °F 46.2 °F 29.63 in SSW 14.0 mph 23.0 mph 85 % 0.00 in 19 W/m2
09:42 50.5 °F 46.2 °F 29.63 in SSW 13.0 mph 23.0 mph 85 % 0.00 in 19 W/m2
09:47 50.5 °F 46.2 °F 29.63 in SSW 11.0 mph 15.0 mph 85 % 0.00 in 19 W/m2
09:52 50.5 °F 46.2 °F 29.63 in SSW 12.0 mph 18.0 mph 85 % 0.00 in 19 W/m2
09:57 50.5 °F 46.2 °F 29.62 in SSW 12.0 mph 21.0 mph 85 % 0.00 in 25 W/m2
09:58 50.5 °F 46.2 °F 29.63 in SSW 11.0 mph 21.0 mph 85 % 0.00 in 28 W/m2
10:03 50.5 °F 46.2 °F 29.63 in South 9.0 mph 12.0 mph 85 % 0.00 in 21 W/m2
10:06 50.4 °F 46.0 °F 29.62 in South 9.0 mph 14.0 mph 85 % 0.00 in 18 W/m2
10:10 50.4 °F 46.3 °F 29.63 in SSW 5.0 mph 9.0 mph 86 % 0.00 in 18 W/m2
10:11 50.4 °F 46.3 °F 29.63 in SSW 7.0 mph 14.0 mph 86 % 0.00 in 18 W/m2
10:16 50.4 °F 46.3 °F 29.62 in South 9.0 mph 13.0 mph 86 % 0.00 in 21 W/m2
10:21 50.2 °F 46.2 °F 29.62 in SSW 8.0 mph 16.0 mph 86 % 0.00 in 21 W/m2
10:25 50.2 °F 46.5 °F 29.62 in South 5.0 mph 8.0 mph 87 % 0.00 in 14 W/m2
10:30 50.2 °F 46.5 °F 29.62 in SSW 5.0 mph 9.0 mph 87 % 0.00 in 28 W/m2
10:33 50.2 °F 46.5 °F 29.61 in South 9.0 mph 14.0 mph 87 % 0.00 in 33 W/m2
10:38 50.2 °F 46.5 °F 29.61 in South 10.0 mph 15.0 mph 87 % 0.00 in 23 W/m2
10:40 50.2 °F 46.5 °F 29.61 in South 6.0 mph 12.0 mph 87 % 0.00 in 16 W/m2
10:41 50.2 °F 46.5 °F 29.61 in South 6.0 mph 12.0 mph 87 % 0.00 in 16 W/m2
10:45 50.2 °F 46.5 °F 29.61 in SSW 9.0 mph 16.0 mph 87 % 0.00 in 14 W/m2
10:50 50.2 °F 46.5 °F 29.61 in SSW 16.0 mph 32.0 mph 87 % 0.00 in 19 W/m2
10:54 50.4 °F 46.6 °F 29.60 in SSW 11.0 mph 19.0 mph 87 % 0.00 in 19 W/m2
10:59 50.2 °F 46.8 °F 29.61 in SW 8.0 mph 12.0 mph 88 % 0.00 in 18 W/m2
11:01 50.0 °F 46.6 °F 29.61 in SW 9.0 mph 19.0 mph 88 % 0.00 in 16 W/m2
11:05 49.8 °F 46.7 °F 29.60 in SW 9.0 mph 13.0 mph 89 % 0.00 in 21 W/m2
11:10 49.8 °F 46.7 °F 29.60 in South 7.0 mph 14.0 mph 89 % 0.00 in 37 W/m2
11:11 49.8 °F 46.7 °F 29.60 in South 8.0 mph 15.0 mph 89 % 0.00 in 40 W/m2
11:16 49.8 °F 46.4 °F 29.59 in SSW 10.0 mph 16.0 mph 88 % 0.00 in 49 W/m2
11:21 50.0 °F 46.6 °F 29.59 in SSW 7.0 mph 14.0 mph 88 % 0.00 in 60 W/m2
11:26 50.2 °F 46.5 °F 29.58 in SSW 8.0 mph 14.0 mph 87 % 0.00 in 72 W/m2
11:27 50.2 °F 46.5 °F 29.58 in SSW 9.0 mph 18.0 mph 87 % 0.00 in 72 W/m2
11:29 50.2 °F 46.2 °F 29.58 in SSW 11.0 mph 18.0 mph 86 % 0.00 in 132 W/m2
11:33 50.5 °F 46.5 °F 29.58 in SSW 6.0 mph 9.0 mph 86 % 0.00 in 113 W/m2
11:38 50.5 °F 46.2 °F 29.58 in South 12.0 mph 20.0 mph 85 % 0.00 in 65 W/m2
11:42 50.7 °F 46.1 °F 29.57 in SSW 10.0 mph 16.0 mph 84 % 0.00 in 100 W/m2
11:47 50.7 °F 45.7 °F 29.57 in South 10.0 mph 19.0 mph 83 % 0.00 in 77 W/m2
11:48 50.7 °F 45.7 °F 29.57 in South 7.0 mph 10.0 mph 83 % 0.00 in 84 W/m2
11:53 51.1 °F 46.1 °F 29.56 in SSW 9.0 mph 18.0 mph 83 % 0.00 in 130 W/m2
11:54 51.1 °F 46.1 °F 29.56 in SSW 9.0 mph 18.0 mph 83 % 0.00 in 125 W/m2
11:56 51.1 °F 46.1 °F 29.55 in SW 5.0 mph 12.0 mph 83 % 0.00 in 114 W/m2
12:00 51.3 °F 46.3 °F 29.55 in SSW 6.0 mph 9.0 mph 83 % 0.00 in 121 W/m2
12:05 51.4 °F 46.1 °F 29.55 in SSW 8.0 mph 13.0 mph 82 % 0.00 in 72 W/m2
12:07 51.4 °F 46.1 °F 29.55 in SSW 10.0 mph 14.0 mph 82 % 0.00 in 54 W/m2
12:11 51.4 °F 46.1 °F 29.55 in SSW 8.0 mph 15.0 mph 82 % 0.00 in 42 W/m2
12:13 51.4 °F 46.1 °F 29.55 in SW 8.0 mph 13.0 mph 82 % 0.00 in 46 W/m2
12:18 51.6 °F 46.3 °F 29.55 in SSW 11.0 mph 21.0 mph 82 % 0.00 in 49 W/m2
12:23 51.4 °F 46.1 °F 29.54 in SSW 8.0 mph 14.0 mph 82 % 0.00 in 32 W/m2
12:26 51.4 °F 46.4 °F 29.54 in SW 11.0 mph 18.0 mph 83 % 0.00 in 28 W/m2
12:31 51.1 °F 46.1 °F 29.53 in South 11.0 mph 22.0 mph 83 % 0.00 in 21 W/m2
12:33 51.1 °F 46.4 °F 29.54 in SSW 9.0 mph 16.0 mph 84 % 0.00 in 25 W/m2
12:35 51.1 °F 46.4 °F 29.53 in SSW 7.0 mph 14.0 mph 84 % 0.00 in 30 W/m2
12:38 50.9 °F 46.6 °F 29.53 in SSW 6.0 mph 10.0 mph 85 % 0.00 in 30 W/m2
12:41 50.7 °F 46.4 °F 29.53 in South 8.0 mph 14.0 mph 85 % 0.00 in 26 W/m2
12:46 50.5 °F 46.2 °F 29.52 in South 7.0 mph 13.0 mph 85 % 0.00 in 54 W/m2
12:51 50.5 °F 46.5 °F 29.52 in South 9.0 mph 15.0 mph 86 % 0.00 in 49 W/m2
12:52 50.5 °F 46.5 °F 29.51 in South 7.0 mph 13.0 mph 86 % 0.00 in 47 W/m2
12:57 50.9 °F 46.6 °F 29.51 in SSW 14.0 mph 21.0 mph 85 % 0.00 in 171 W/m2
12:59 51.1 °F 46.7 °F 29.51 in SSW 10.0 mph 18.0 mph 85 % 0.00 in 120 W/m2
13:02 51.3 °F 46.9 °F 29.51 in SSW 9.0 mph 15.0 mph 85 % 0.00 in 74 W/m2
13:05 51.3 °F 46.6 °F 29.50 in SSW 11.0 mph 19.0 mph 84 % 0.00 in 97 W/m2
13:08 51.4 °F 46.8 °F 29.51 in SSW 11.0 mph 21.0 mph 84 % 0.00 in 83 W/m2
13:10 51.4 °F 46.4 °F 29.50 in South 15.0 mph 27.0 mph 83 % 0.00 in 53 W/m2
13:15 51.4 °F 46.4 °F 29.50 in SSW 12.0 mph 22.0 mph 83 % 0.00 in 53 W/m2
13:18 51.4 °F 46.4 °F 29.49 in SSW 13.0 mph 19.0 mph 83 % 0.00 in 74 W/m2
13:23 51.4 °F 46.4 °F 29.49 in SSW 12.0 mph 21.0 mph 83 % 0.00 in 56 W/m2
13:27 51.4 °F 46.4 °F 29.49 in SSW 11.0 mph 19.0 mph 83 % 0.00 in 58 W/m2
13:31 51.4 °F 46.4 °F 29.49 in South 12.0 mph 23.0 mph 83 % 0.00 in 69 W/m2
13:36 51.4 °F 46.4 °F 29.48 in SSW 10.0 mph 19.0 mph 83 % 0.00 in 79 W/m2
13:38 51.6 °F 46.6 °F 29.48 in SSW 13.0 mph 21.0 mph 83 % 0.00 in 81 W/m2
13:41 51.6 °F 46.6 °F 29.48 in SW 9.0 mph 20.0 mph 83 % 0.00 in 58 W/m2
13:44 51.6 °F 46.3 °F 29.48 in SSW 12.0 mph 20.0 mph 82 % 0.00 in 70 W/m2
13:49 51.6 °F 46.3 °F 29.47 in SSW 11.0 mph 25.0 mph 82 % 0.00 in 105 W/m2
13:50 51.6 °F 46.3 °F 29.47 in SSW 14.0 mph 25.0 mph 82 % 0.00 in 86 W/m2
13:51 51.6 °F 46.3 °F 29.47 in SSW 14.0 mph 25.0 mph 82 % 0.00 in 86 W/m2
13:56 51.8 °F 46.2 °F 29.47 in SSW 13.0 mph 19.0 mph 81 % 0.00 in 155 W/m2
13:57 51.8 °F 46.2 °F 29.47 in SSW 14.0 mph 21.0 mph 81 % 0.00 in 116 W/m2
13:58 51.8 °F 46.2 °F 29.47 in SSW 14.0 mph 21.0 mph 81 % 0.00 in 105 W/m2
14:03 52.0 °F 46.3 °F 29.46 in SSW 12.0 mph 20.0 mph 81 % 0.00 in 118 W/m2
14:05 52.0 °F 46.3 °F 29.46 in SSW 13.0 mph 22.0 mph 81 % 0.00 in 121 W/m2
14:10 52.0 °F 46.0 °F 29.45 in SSW 13.0 mph 21.0 mph 80 % 0.00 in 72 W/m2
14:12 52.0 °F 46.0 °F 29.45 in SSW 12.0 mph 21.0 mph 80 % 0.00 in 65 W/m2
14:17 51.8 °F 45.8 °F 29.45 in SW 15.0 mph 25.0 mph 80 % 0.00 in 109 W/m2
14:22 51.6 °F 45.7 °F 29.44 in SSW 13.0 mph 21.0 mph 80 % 0.00 in 40 W/m2
14:23 51.6 °F 45.7 °F 29.44 in SSW 13.0 mph 21.0 mph 80 % 0.00 in 40 W/m2
14:28 51.6 °F 45.7 °F 29.44 in SW 16.0 mph 25.0 mph 80 % 0.00 in 42 W/m2
14:33 51.4 °F 45.5 °F 29.43 in SW 12.0 mph 24.0 mph 80 % 0.00 in 30 W/m2
14:34 51.4 °F 45.5 °F 29.43 in SSW 12.0 mph 24.0 mph 80 % 0.00 in 30 W/m2
14:36 51.4 °F 45.5 °F 29.43 in SSW 11.0 mph 21.0 mph 80 % 0.00 in 26 W/m2
14:41 51.3 °F 45.3 °F 29.42 in SSW 11.0 mph 19.0 mph 80 % 0.00 in 33 W/m2
14:46 51.1 °F 45.5 °F 29.42 in South 14.0 mph 26.0 mph 81 % 0.00 in 21 W/m2
14:51 51.1 °F 45.5 °F 29.42 in SSW 15.0 mph 22.0 mph 81 % 0.00 in 19 W/m2
14:52 51.1 °F 45.5 °F 29.42 in SSW 14.0 mph 22.0 mph 81 % 0.00 in 18 W/m2
14:57 51.1 °F 45.5 °F 29.41 in SSW 11.0 mph 24.0 mph 81 % 0.00 in 18 W/m2
14:58 51.1 °F 45.5 °F 29.41 in SSW 12.0 mph 24.0 mph 81 % 0.00 in 18 W/m2
15:03 51.1 °F 45.8 °F 29.41 in South 14.0 mph 24.0 mph 82 % 0.00 in 26 W/m2
15:04 50.9 °F 45.6 °F 29.41 in SSW 13.0 mph 19.0 mph 82 % 0.00 in 28 W/m2
15:09 50.9 °F 45.6 °F 29.41 in SSW 11.0 mph 16.0 mph 82 % 0.00 in 26 W/m2
15:14 50.9 °F 45.6 °F 29.40 in SSW 17.0 mph 26.0 mph 82 % 0.00 in 19 W/m2
15:15 50.9 °F 45.6 °F 29.40 in SSW 15.0 mph 24.0 mph 82 % 0.00 in 19 W/m2
15:19 50.7 °F 45.4 °F 29.40 in SSW 13.0 mph 20.0 mph 82 % 0.00 in 12 W/m2
15:22 50.7 °F 45.4 °F 29.40 in SSW 14.0 mph 22.0 mph 82 % 0.00 in 11 W/m2
15:27 50.7 °F 45.4 °F 29.40 in SSW 15.0 mph 23.0 mph 82 % 0.00 in 9 W/m2
15:28 50.7 °F 45.4 °F 29.40 in SSW 17.0 mph 30.0 mph 82 % 0.00 in 9 W/m2
15:33 50.7 °F 45.4 °F 29.40 in SSW 18.0 mph 24.0 mph 82 % 0.00 in 7 W/m2
15:37 50.7 °F 45.4 °F 29.39 in SSW 15.0 mph 24.0 mph 82 % 0.00 in 5 W/m2
15:41 50.7 °F 45.4 °F 29.39 in SSW 11.0 mph 19.0 mph 82 % 0.00 in 0 W/m2
15:43 50.7 °F 45.4 °F 29.39 in SSW 14.0 mph 25.0 mph 82 % 0.00 in 0 W/m2
15:44 50.7 °F 45.4 °F 29.39 in SSW 13.0 mph 23.0 mph 82 % 0.00 in 0 W/m2
15:47 50.7 °F 45.4 °F 29.39 in South 12.0 mph 22.0 mph 82 % 0.00 in 0 W/m2
15:52 50.9 °F 45.6 °F 29.38 in South 14.0 mph 23.0 mph 82 % 0.00 in 0 W/m2
15:53 50.9 °F 45.6 °F 29.38 in South 14.0 mph 23.0 mph 82 % 0.00 in 0 W/m2
15:58 51.1 °F 45.8 °F 29.37 in SSW 13.0 mph 21.0 mph 82 % 0.00 in 0 W/m2
16:03 50.7 °F 45.4 °F 29.37 in SSW 12.0 mph 26.0 mph 82 % 0.00 in 0 W/m2
16:04 50.7 °F 45.4 °F 29.37 in SSW 12.0 mph 26.0 mph 82 % 0.00 in 0 W/m2
16:09 50.9 °F 45.6 °F 29.36 in SSW 20.0 mph 33.0 mph 82 % 0.00 in 0 W/m2
16:11 50.9 °F 45.6 °F 29.36 in SSW 14.0 mph 24.0 mph 82 % 0.00 in 0 W/m2
16:16 50.9 °F 45.6 °F 29.36 in SSW 16.0 mph 27.0 mph 82 % 0.00 in 0 W/m2
16:20 50.9 °F 45.6 °F 29.35 in SSW 16.0 mph 27.0 mph 82 % 0.00 in 0 W/m2
16:25 50.9 °F 45.6 °F 29.35 in SSW 14.0 mph 23.0 mph 82 % 0.00 in 0 W/m2
16:30 50.9 °F 45.6 °F 29.34 in SSW 18.0 mph 26.0 mph 82 % 0.00 in 0 W/m2
16:35 50.7 °F 45.4 °F 29.34 in SSW 13.0 mph 25.0 mph 82 % 0.00 in 0 W/m2
16:40 50.7 °F 45.4 °F 29.34 in SSW 16.0 mph 28.0 mph 82 % 0.00 in 0 W/m2
16:44 50.5 °F 45.2 °F 29.34 in SSW 15.0 mph 27.0 mph 82 % 0.00 in 0 W/m2
16:45 50.5 °F 45.2 °F 29.34 in SSW 16.0 mph 27.0 mph 82 % 0.00 in 0 W/m2
16:50 50.5 °F 45.2 °F 29.33 in SSW 15.0 mph 28.0 mph 82 % 0.00 in 0 W/m2
16:54 50.5 °F 45.2 °F 29.33 in SSW 13.0 mph 19.0 mph 82 % 0.00 in 0 W/m2
16:58 50.5 °F 45.6 °F 29.33 in SSW 11.0 mph 18.0 mph 83 % 0.00 in 0 W/m2
17:03 50.5 °F 45.6 °F 29.33 in SSW 14.0 mph 26.0 mph 83 % 0.00 in 0 W/m2
17:04 50.5 °F 45.6 °F 29.33 in SSW 14.0 mph 26.0 mph 83 % 0.00 in 0 W/m2
17:05 50.5 °F 45.6 °F 29.32 in SSW 10.0 mph 14.0 mph 83 % 0.00 in 0 W/m2
17:10 50.7 °F 45.7 °F 29.32 in SSW 12.0 mph 21.0 mph 83 % 0.00 in 0 W/m2
17:11 50.7 °F 45.7 °F 29.32 in SSW 14.0 mph 25.0 mph 83 % 0.00 in 0 W/m2
17:13 50.7 °F 45.7 °F 29.32 in SSW 15.0 mph 25.0 mph 83 % 0.00 in 0 W/m2
17:18 50.9 °F 45.6 °F 29.31 in SSW 14.0 mph 24.0 mph 82 % 0.00 in 0 W/m2
17:23 51.1 °F 45.8 °F 29.31 in SSW 17.0 mph 29.0 mph 82 % 0.00 in 0 W/m2
17:26 51.1 °F 45.8 °F 29.31 in SSW 15.0 mph 25.0 mph 82 % 0.00 in 0 W/m2
17:29 51.3 °F 46.0 °F 29.31 in SSW 13.0 mph 26.0 mph 82 % 0.00 in 0 W/m2
17:33 51.1 °F 45.8 °F 29.30 in SSW 10.0 mph 16.0 mph 82 % 0.00 in 0 W/m2
17:36 51.1 °F 45.8 °F 29.30 in SSW 16.0 mph 24.0 mph 82 % 0.00 in 0 W/m2
17:41 51.1 °F 45.8 °F 29.30 in SSW 12.0 mph 23.0 mph 82 % 0.00 in 0 W/m2
17:43 51.1 °F 45.8 °F 29.30 in SSW 16.0 mph 23.0 mph 82 % 0.00 in 0 W/m2
17:48 51.1 °F 45.8 °F 29.29 in SSW 15.0 mph 23.0 mph 82 % 0.00 in 0 W/m2
17:49 51.1 °F 45.8 °F 29.29 in SSW 15.0 mph 23.0 mph 82 % 0.00 in 0 W/m2
17:54 51.1 °F 45.8 °F 29.29 in SSW 13.0 mph 23.0 mph 82 % 0.00 in 0 W/m2
17:59 51.1 °F 45.8 °F 29.29 in South 12.0 mph 19.0 mph 82 % 0.00 in 0 W/m2
18:01 51.1 °F 45.8 °F 29.29 in South 12.0 mph 25.0 mph 82 % 0.00 in 0 W/m2
18:05 51.1 °F 46.1 °F 29.28 in South 14.0 mph 24.0 mph 83 % 0.00 in 0 W/m2
18:07 51.1 °F 46.1 °F 29.28 in South 11.0 mph 24.0 mph 83 % 0.00 in 0 W/m2
18:12 51.3 °F 46.3 °F 29.28 in SSW 10.0 mph 16.0 mph 83 % 0.00 in 0 W/m2
18:14 51.3 °F 46.3 °F 29.27 in South 9.0 mph 18.0 mph 83 % 0.00 in 0 W/m2
18:19 51.1 °F 46.1 °F 29.27 in SSW 11.0 mph 21.0 mph 83 % 0.00 in 0 W/m2
18:20 51.3 °F 46.3 °F 29.28 in SSW 15.0 mph 39.0 mph 83 % 0.00 in 0 W/m2
18:25 51.3 °F 46.0 °F 29.27 in SSW 13.0 mph 22.0 mph 82 % 0.00 in 0 W/m2
18:28 51.4 °F 46.1 °F 29.27 in SSW 13.0 mph 22.0 mph 82 % 0.00 in 0 W/m2
18:33 51.4 °F 46.1 °F 29.27 in SSW 14.0 mph 24.0 mph 82 % 0.00 in 0 W/m2
18:34 51.4 °F 45.8 °F 29.27 in South 15.0 mph 24.0 mph 81 % 0.00 in 0 W/m2
18:39 51.4 °F 45.8 °F 29.26 in SSW 14.0 mph 24.0 mph 81 % 0.00 in 0 W/m2
18:40 51.4 °F 45.8 °F 29.26 in SSW 13.0 mph 23.0 mph 81 % 0.00 in 0 W/m2
18:45 51.4 °F 45.8 °F 29.26 in SSW 12.0 mph 23.0 mph 81 % 0.00 in 0 W/m2
18:46 51.4 °F 45.8 °F 29.26 in SSW 13.0 mph 23.0 mph 81 % 0.00 in 0 W/m2
18:49 51.4 °F 45.8 °F 29.26 in SSW 13.0 mph 25.0 mph 81 % 0.00 in 0 W/m2
18:52 51.4 °F 45.8 °F 29.26 in SSW 15.0 mph 22.0 mph 81 % 0.00 in 0 W/m2
18:58 51.4 °F 45.8 °F 29.26 in SW 16.0 mph 21.0 mph 81 % 0.00 in 0 W/m2
19:03 51.3 °F 46.0 °F 29.26 in SW 11.0 mph 16.0 mph 82 % 0.00 in 0 W/m2
19:04 51.3 °F 46.0 °F 29.26 in SW 9.0 mph 15.0 mph 82 % 0.00 in 0 W/m2
19:09 51.1 °F 46.1 °F 29.26 in WSW 9.0 mph 13.0 mph 83 % 0.00 in 0 W/m2
19:14 50.2 °F 44.9 °F 29.26 in WNW 7.0 mph 10.0 mph 82 % 0.01 in 0 W/m2
19:18 49.5 °F 44.5 °F 29.25 in WNW 6.0 mph 11.0 mph 83 % 0.01 in 0 W/m2
19:23 48.6 °F 44.3 °F 29.25 in WNW 6.0 mph 9.0 mph 85 % 0.01 in 0 W/m2
19:25 48.2 °F 44.2 °F 29.26 in WNW 7.0 mph 11.0 mph 86 % 0.02 in 0 W/m2
19:26 48.0 °F 44.0 °F 29.26 in WNW 6.0 mph 11.0 mph 86 % 0.02 in 0 W/m2
19:31 47.5 °F 44.1 °F 29.25 in West 8.0 mph 11.0 mph 88 % 0.03 in 0 W/m2
19:33 47.1 °F 43.7 °F 29.25 in WNW 8.0 mph 12.0 mph 88 % 0.03 in 0 W/m2
19:38 46.8 °F 43.7 °F 29.26 in West 7.0 mph 12.0 mph 89 % 0.04 in 0 W/m2
19:41 46.6 °F 43.8 °F 29.26 in West 8.0 mph 13.0 mph 90 % 0.04 in 0 W/m2
19:44 46.2 °F 43.4 °F 29.25 in West 8.0 mph 16.0 mph 90 % 0.05 in 0 W/m2
19:49 45.9 °F 43.1 °F 29.25 in West 10.0 mph 14.0 mph 90 % 0.05 in 0 W/m2
19:51 45.9 °F 43.1 °F 29.25 in West 8.0 mph 12.0 mph 90 % 0.05 in 0 W/m2
19:56 45.5 °F 43.0 °F 29.25 in West 7.0 mph 10.0 mph 91 % 0.05 in 0 W/m2
19:58 45.3 °F 42.8 °F 29.25 in West 8.0 mph 12.0 mph 91 % 0.05 in 0 W/m2
20:03 45.1 °F 42.7 °F 29.25 in WNW 9.0 mph 14.0 mph 91 % 0.06 in 0 W/m2
20:04 45.1 °F 42.7 °F 29.25 in WNW 10.0 mph 15.0 mph 91 % 0.06 in 0 W/m2
20:06 45.0 °F 42.5 °F 29.25 in WNW 11.0 mph 16.0 mph 91 % 0.06 in 0 W/m2
20:11 44.6 °F 42.1 °F 29.25 in WNW 10.0 mph 13.0 mph 91 % 0.05 in 0 W/m2
20:16 44.2 °F 41.8 °F 29.25 in WNW 9.0 mph 14.0 mph 91 % 0.05 in 0 W/m2
20:17 44.2 °F 41.8 °F 29.25 in WNW 8.0 mph 13.0 mph 91 % 0.05 in 0 W/m2
20:22 43.9 °F 41.4 °F 29.25 in WNW 13.0 mph 19.0 mph 91 % 0.06 in 0 W/m2
20:25 43.9 °F 41.4 °F 29.25 in WNW 10.0 mph 15.0 mph 91 % 0.05 in 0 W/m2
20:30 43.3 °F 40.9 °F 29.25 in WNW 13.0 mph 20.0 mph 91 % 0.03 in 0 W/m2
20:31 43.3 °F 40.9 °F 29.25 in WNW 13.0 mph 20.0 mph 91 % 0.03 in 0 W/m2
20:36 43.2 °F 40.7 °F 29.25 in WNW 12.0 mph 19.0 mph 91 % 0.03 in 0 W/m2
20:41 42.4 °F 39.7 °F 29.25 in West 13.0 mph 19.0 mph 90 % 0.02 in 0 W/m2
20:42 42.3 °F 39.5 °F 29.25 in WNW 12.0 mph 19.0 mph 90 % 0.02 in 0 W/m2
20:43 42.3 °F 39.5 °F 29.25 in WNW 12.0 mph 18.0 mph 90 % 0.02 in 0 W/m2
20:48 41.9 °F 39.2 °F 29.25 in WNW 11.0 mph 19.0 mph 90 % 0.02 in 0 W/m2
20:53 41.5 °F 38.8 °F 29.25 in WNW 11.0 mph 20.0 mph 90 % 0.02 in 0 W/m2
20:58 41.4 °F 38.6 °F 29.25 in WNW 14.0 mph 20.0 mph 90 % 0.02 in 0 W/m2
20:59 41.4 °F 38.6 °F 29.24 in WNW 13.0 mph 18.0 mph 90 % 0.02 in 0 W/m2
21:05 41.2 °F 38.5 °F 29.24 in WNW 11.0 mph 16.0 mph 90 % 0.02 in 0 W/m2
21:09 41.0 °F 38.6 °F 29.24 in WNW 9.0 mph 12.0 mph 91 % 0.02 in 0 W/m2
21:12 40.8 °F 38.4 °F 29.24 in WNW 10.0 mph 15.0 mph 91 % 0.02 in 0 W/m2
21:17 40.8 °F 38.4 °F 29.24 in WNW 11.0 mph 18.0 mph 91 % 0.02 in 0 W/m2
21:20 40.8 °F 38.4 °F 29.24 in WNW 9.0 mph 15.0 mph 91 % 0.01 in 0 W/m2
21:25 40.6 °F 38.2 °F 29.24 in West 7.0 mph 11.0 mph 91 % 0.01 in 0 W/m2
21:26 40.6 °F 38.2 °F 29.24 in West 7.0 mph 11.0 mph 91 % 0.01 in 0 W/m2
21:31 40.6 °F 38.2 °F 29.24 in West 7.0 mph 11.0 mph 91 % 0.01 in 0 W/m2
21:36 40.6 °F 38.5 °F 29.24 in WNW 11.0 mph 16.0 mph 92 % 0.01 in 0 W/m2
21:40 40.6 °F 38.5 °F 29.24 in West 10.0 mph 15.0 mph 92 % 0.01 in 0 W/m2
21:45 40.6 °F 38.5 °F 29.24 in WNW 8.0 mph 13.0 mph 92 % 0.00 in 0 W/m2
21:50 40.6 °F 38.5 °F 29.24 in West 8.0 mph 11.0 mph 92 % 0.00 in 0 W/m2
21:51 40.6 °F 38.5 °F 29.24 in WNW 7.0 mph 11.0 mph 92 % 0.00 in 0 W/m2
21:55 40.6 °F 38.5 °F 29.24 in West 8.0 mph 11.0 mph 92 % 0.00 in 0 W/m2
21:57 40.6 °F 38.5 °F 29.24 in West 8.0 mph 12.0 mph 92 % 0.00 in 0 W/m2
22:02 40.6 °F 38.5 °F 29.23 in West 7.0 mph 12.0 mph 92 % 0.00 in 0 W/m2
22:06 40.6 °F 38.5 °F 29.23 in West 8.0 mph 14.0 mph 92 % 0.00 in 0 W/m2
22:11 40.6 °F 38.5 °F 29.23 in WNW 9.0 mph 18.0 mph 92 % 0.00 in 0 W/m2
22:12 40.6 °F 38.5 °F 29.23 in WNW 10.0 mph 18.0 mph 92 % 0.00 in 0 W/m2
22:16 40.6 °F 38.5 °F 29.23 in WNW 11.0 mph 18.0 mph 92 % 0.00 in 0 W/m2
22:17 40.6 °F 38.5 °F 29.23 in West 11.0 mph 16.0 mph 92 % 0.00 in 0 W/m2
22:18 40.6 °F 38.5 °F 29.23 in WNW 11.0 mph 16.0 mph 92 % 0.00 in 0 W/m2
22:23 40.6 °F 38.5 °F 29.23 in WNW 10.0 mph 18.0 mph 92 % 0.00 in 0 W/m2
22:24 40.6 °F 38.5 °F 29.23 in WNW 10.0 mph 18.0 mph 92 % 0.00 in 0 W/m2
22:27 40.6 °F 38.2 °F 29.23 in WNW 10.0 mph 18.0 mph 91 % 0.00 in 0 W/m2
22:30 40.6 °F 38.2 °F 29.23 in WNW 13.0 mph 21.0 mph 91 % 0.00 in 0 W/m2
22:35 40.6 °F 38.2 °F 29.23 in WNW 12.0 mph 20.0 mph 91 % 0.00 in 0 W/m2
22:37 40.6 °F 38.2 °F 29.23 in WNW 13.0 mph 20.0 mph 91 % 0.00 in 0 W/m2
22:42 40.6 °F 38.2 °F 29.23 in WNW 10.0 mph 15.0 mph 91 % 0.00 in 0 W/m2
22:43 40.6 °F 38.2 °F 29.23 in WNW 11.0 mph 16.0 mph 91 % 0.00 in 0 W/m2
22:49 40.6 °F 38.2 °F 29.24 in WNW 8.0 mph 12.0 mph 91 % 0.00 in 0 W/m2
22:54 40.6 °F 38.2 °F 29.23 in West 10.0 mph 14.0 mph 91 % 0.00 in 0 W/m2
22:55 40.6 °F 38.2 °F 29.23 in West 9.0 mph 13.0 mph 91 % 0.00 in 0 W/m2
23:00 40.6 °F 38.2 °F 29.24 in WNW 10.0 mph 18.0 mph 91 % 0.00 in 0 W/m2
23:05 40.6 °F 38.2 °F 29.24 in WNW 14.0 mph 22.0 mph 91 % 0.00 in 0 W/m2
23:06 40.6 °F 38.2 °F 29.24 in WNW 13.0 mph 20.0 mph 91 % 0.00 in 0 W/m2
23:10 40.8 °F 38.4 °F 29.24 in WNW 11.0 mph 15.0 mph 91 % 0.00 in 0 W/m2
23:11 40.8 °F 38.4 °F 29.24 in WNW 10.0 mph 15.0 mph 91 % 0.00 in 0 W/m2
23:16 40.8 °F 38.4 °F 29.24 in West 11.0 mph 18.0 mph 91 % 0.00 in 0 W/m2
23:18 40.8 °F 38.4 °F 29.24 in WNW 12.0 mph 19.0 mph 91 % 0.00 in 0 W/m2
23:19 40.8 °F 38.4 °F 29.24 in WNW 11.0 mph 19.0 mph 91 % 0.00 in 0 W/m2
23:23 40.6 °F 38.2 °F 29.24 in WNW 13.0 mph 19.0 mph 91 % 0.00 in 0 W/m2
23:28 40.6 °F 38.2 °F 29.24 in WNW 9.0 mph 18.0 mph 91 % 0.00 in 0 W/m2
23:29 40.6 °F 38.2 °F 29.24 in WNW 9.0 mph 18.0 mph 91 % 0.00 in 0 W/m2
23:34 40.6 °F 37.9 °F 29.24 in West 13.0 mph 20.0 mph 90 % 0.00 in 0 W/m2
23:36 40.6 °F 38.2 °F 29.24 in West 13.0 mph 24.0 mph 91 % 0.00 in 0 W/m2
23:38 40.6 °F 38.2 °F 29.24 in West 13.0 mph 23.0 mph 91 % 0.00 in 0 W/m2
23:43 40.6 °F 37.9 °F 29.25 in WNW 13.0 mph 23.0 mph 90 % 0.00 in 0 W/m2
23:48 40.5 °F 37.8 °F 29.25 in WNW 15.0 mph 22.0 mph 90 % 0.00 in 0 W/m2
23:51 40.5 °F 37.8 °F 29.25 in WNW 11.0 mph 18.0 mph 90 % 0.00 in 0 W/m2
23:56 40.5 °F 37.8 °F 29.25 in West 11.0 mph 19.0 mph 90 % 0.00 in 0 W/m2
23:57 40.5 °F 37.8 °F 29.25 in West 10.0 mph 14.0 mph 90 % 0.00 in 0 W/m2
Delerius-Weather
Compliments of Weather Underground - 3 mb

Data updates at regular intervals.